createdAt,value
2019-04-22T00:02:22.604Z,99.90
2019-04-22T00:05:04.683Z,99.90
2019-04-22T00:07:50.039Z,99.90
2019-04-22T00:10:28.970Z,99.90
2019-04-22T00:12:53.110Z,99.90
2019-04-22T00:15:20.192Z,99.90
2019-04-22T00:18:03.738Z,99.90
2019-04-22T00:20:33.034Z,99.90
2019-04-22T00:23:00.189Z,99.90
2019-04-22T00:25:34.699Z,99.90
2019-04-22T00:28:12.772Z,99.90
2019-04-22T00:30:34.147Z,99.90
2019-04-22T00:33:29.174Z,99.90
2019-04-22T00:35:54.462Z,99.90
2019-04-22T00:38:33.744Z,99.90
2019-04-22T00:41:00.792Z,99.90
2019-04-22T00:43:36.003Z,99.90
2019-04-22T00:46:02.931Z,99.90
2019-04-22T00:48:43.032Z,99.90
2019-04-22T00:51:14.339Z,99.90
2019-04-22T00:53:40.119Z,99.90
2019-04-22T00:56:18.728Z,99.90
2019-04-22T00:58:46.673Z,99.90
2019-04-22T01:01:22.179Z,99.90
2019-04-22T01:03:59.162Z,99.90
2019-04-22T01:06:25.496Z,99.90
2019-04-22T01:11:31.094Z,99.90
2019-04-22T01:13:55.723Z,99.90
2019-04-22T01:16:28.090Z,99.90
2019-04-22T01:19:04.016Z,99.90
2019-04-22T01:21:47.793Z,99.90
2019-04-22T01:24:05.929Z,99.90
2019-04-22T01:26:28.930Z,99.90
2019-04-22T01:29:03.879Z,99.90
2019-04-22T01:31:25.036Z,99.90
2019-04-22T01:34:05.472Z,99.90
2019-04-22T01:36:44.094Z,99.90
2019-04-22T01:39:37.641Z,99.90
2019-04-22T01:41:59.868Z,99.90
2019-04-22T01:44:31.357Z,99.90
2019-04-22T01:46:56.869Z,99.90
2019-04-22T01:49:27.562Z,99.90
2019-04-22T01:52:09.720Z,99.90
2019-04-22T01:54:34.938Z,99.90
2019-04-22T01:57:20.725Z,99.90
2019-04-22T01:59:28.708Z,99.90
2019-04-22T02:02:11.851Z,99.90
2019-04-22T02:07:16.764Z,99.90
2019-04-22T02:09:42.743Z,99.90
2019-04-22T02:12:13.073Z,99.90
2019-04-22T02:14:45.463Z,99.90
2019-04-22T02:17:17.612Z,99.90
2019-04-22T02:19:53.538Z,99.90
2019-04-22T02:22:38.618Z,99.90
2019-04-22T02:24:53.899Z,99.90
2019-04-22T02:27:32.636Z,99.90
2019-04-22T02:29:52.270Z,99.90
2019-04-22T02:32:49.557Z,99.90
2019-04-22T02:37:35.795Z,99.90
2019-04-22T02:40:10.186Z,99.90
2019-04-22T02:42:35.144Z,99.90
2019-04-22T02:45:07.699Z,99.90
2019-04-22T02:47:43.175Z,99.90
2019-04-22T02:50:09.066Z,99.90
2019-04-22T02:52:43.567Z,99.90
2019-04-22T02:55:23.013Z,99.90
2019-04-22T02:58:05.563Z,99.90
2019-04-22T03:10:37.970Z,99.90
2019-04-22T03:13:04.747Z,99.90
2019-04-22T03:15:29.893Z,99.90
2019-04-22T03:20:33.540Z,99.90
2019-04-22T03:23:17.533Z,99.90
2019-04-22T03:28:08.701Z,99.90
2019-04-22T03:30:56.142Z,99.90
2019-04-22T03:33:36.182Z,99.90
2019-04-22T03:38:20.160Z,99.90
2019-04-22T03:40:54.910Z,99.90
2019-04-22T03:43:24.896Z,99.90
2019-04-22T03:45:45.838Z,99.90
2019-04-22T03:48:26.350Z,99.90
2019-04-22T03:51:12.076Z,99.90
2019-04-22T03:56:10.895Z,99.90
2019-04-22T03:58:41.057Z,99.90
2019-04-22T04:01:06.384Z,99.90
2019-04-22T04:03:40.190Z,99.90
2019-04-22T04:06:00.289Z,99.90
2019-04-22T04:11:06.420Z,99.90
2019-04-22T04:13:52.062Z,99.90
2019-04-22T04:16:21.169Z,99.90
2019-04-22T04:24:29.131Z,99.90
2019-04-22T04:26:42.700Z,99.90
2019-04-22T04:29:02.751Z,99.90
2019-04-22T04:34:05.618Z,99.90
2019-04-22T04:39:07.388Z,99.90
2019-04-22T04:41:51.922Z,99.90
2019-04-22T04:44:10.793Z,99.90
2019-04-22T04:46:44.803Z,99.90
2019-04-22T04:51:49.120Z,99.90
2019-04-22T04:54:21.422Z,99.90
2019-04-22T04:56:50.362Z,99.90
2019-04-22T05:00:11.161Z,99.90
2019-04-22T05:04:26.406Z,99.90
2019-04-22T05:09:19.563Z,99.90
2019-04-22T05:14:24.307Z,99.90
2019-04-22T05:17:02.357Z,99.90
2019-04-22T05:19:27.340Z,99.90
2019-04-22T05:21:58.101Z,99.90
2019-04-22T05:24:46.029Z,99.90
2019-04-22T05:27:05.166Z,99.90
2019-04-22T05:29:41.997Z,99.90
2019-04-22T05:32:01.450Z,99.90
2019-04-22T05:34:34.848Z,99.90
2019-04-22T05:37:13.109Z,99.90
2019-04-22T05:39:35.686Z,99.90
2019-04-22T05:44:48.011Z,99.90
2019-04-22T05:47:17.831Z,99.90
2019-04-22T05:49:45.851Z,99.90
2019-04-22T05:52:17.191Z,99.90
2019-04-22T05:54:50.464Z,99.90
2019-04-22T05:57:24.696Z,99.90
2019-04-22T05:59:52.249Z,99.90
2019-04-22T06:02:32.028Z,99.90
2019-04-22T06:05:00.344Z,99.90
2019-04-22T06:07:26.780Z,99.90
2019-04-22T06:10:06.595Z,99.90
2019-04-22T06:12:26.433Z,99.90
2019-04-22T06:15:10.126Z,99.90
2019-04-22T06:17:40.224Z,99.90
2019-04-22T06:20:12.228Z,97.60
2019-04-22T06:22:53.435Z,97.10
2019-04-22T06:25:20.505Z,95.30
2019-04-22T06:27:49.315Z,95.20
2019-04-22T06:30:21.849Z,94.40
2019-04-22T06:32:51.850Z,94.10
2019-04-22T06:35:36.505Z,92.30
2019-04-22T06:38:12.419Z,92.20
2019-04-22T06:40:27.505Z,91.20
2019-04-22T06:42:58.108Z,91.00
2019-04-22T06:45:29.066Z,91.20
2019-04-22T06:48:08.028Z,91.10
2019-04-22T06:50:36.735Z,90.70
2019-04-22T06:53:02.649Z,90.50
2019-04-22T06:55:35.708Z,90.50
2019-04-22T06:58:04.531Z,90.50
2019-04-22T07:03:30.416Z,90.40
2019-04-22T07:10:49.025Z,88.80
2019-04-22T07:13:23.233Z,88.60
2019-04-22T07:15:50.426Z,87.00
2019-04-22T07:18:24.454Z,85.90
2019-04-22T07:20:56.370Z,84.70
2019-04-22T07:23:30.317Z,84.10
2019-04-22T07:25:54.753Z,84.50
2019-04-22T07:28:23.315Z,82.90
2019-04-22T07:31:01.934Z,82.90
2019-04-22T07:36:28.884Z,82.70
2019-04-22T07:38:42.834Z,81.70
2019-04-22T07:41:05.440Z,83.30
2019-04-22T07:43:53.112Z,79.70
2019-04-22T07:46:10.972Z,80.00
2019-04-22T07:51:13.456Z,80.20
2019-04-22T07:53:39.223Z,79.10
2019-04-22T07:56:18.784Z,78.40
2019-04-22T07:58:50.410Z,77.70
2019-04-22T08:01:22.964Z,77.00
2019-04-22T08:06:23.612Z,75.50
2019-04-22T08:09:04.684Z,76.10
2019-04-22T08:11:43.718Z,77.10
2019-04-22T08:13:52.788Z,75.10
2019-04-22T08:16:28.499Z,75.60
2019-04-22T08:19:04.229Z,75.70
2019-04-22T08:21:33.982Z,74.50
2019-04-22T08:24:07.955Z,73.10
2019-04-22T08:26:40.670Z,73.10
2019-04-22T08:29:17.204Z,72.80
2019-04-22T08:31:43.358Z,72.80
2019-04-22T08:34:13.998Z,74.00
2019-04-22T08:37:10.322Z,71.60
2019-04-22T08:39:21.729Z,71.00
2019-04-22T08:41:43.839Z,66.80
2019-04-22T08:44:26.107Z,67.90
2019-04-22T08:46:56.174Z,67.50
2019-04-22T08:49:30.659Z,68.90
2019-04-22T08:51:54.950Z,65.80
2019-04-22T08:54:26.058Z,64.70
2019-04-22T08:56:56.849Z,64.80
2019-04-22T08:59:33.718Z,64.30
2019-04-22T09:02:09.665Z,65.60
2019-04-22T09:04:30.886Z,63.90
2019-04-22T09:09:42.436Z,65.60
2019-04-22T09:12:08.441Z,66.20
2019-04-22T09:14:41.775Z,65.80
2019-04-22T09:17:17.630Z,64.10
2019-04-22T09:19:40.920Z,64.50
2019-04-22T09:22:26.575Z,64.80
2019-04-22T09:24:46.937Z,65.00
2019-04-22T09:27:25.159Z,65.10
2019-04-22T09:29:54.923Z,63.90
2019-04-22T09:32:27.241Z,64.70
2019-04-22T09:34:51.297Z,63.00
2019-04-22T09:40:04.629Z,61.20
2019-04-22T09:42:32.285Z,62.20
2019-04-22T09:45:04.066Z,63.30
2019-04-22T09:47:38.072Z,58.70
2019-04-22T09:50:24.310Z,59.00
2019-04-22T09:52:43.573Z,60.00
2019-04-22T09:55:12.516Z,59.30
2019-04-22T09:57:43.206Z,57.40
2019-04-22T10:00:36.511Z,56.80
2019-04-22T10:02:51.777Z,56.60
2019-04-22T10:05:23.402Z,57.50
2019-04-22T10:07:56.259Z,56.40
2019-04-22T10:10:36.631Z,56.60
2019-04-22T10:13:12.841Z,57.40
2019-04-22T10:15:28.109Z,57.50
2019-04-22T10:17:58.188Z,57.80
2019-04-22T10:20:31.660Z,58.30
2019-04-22T10:23:18.993Z,57.80
2019-04-22T10:25:36.719Z,58.00
2019-04-22T10:28:08.963Z,59.00
2019-04-22T10:30:44.559Z,58.80
2019-04-22T10:33:04.516Z,55.70
2019-04-22T10:35:19.941Z,57.70
2019-04-22T10:37:48.320Z,58.30
2019-04-22T10:40:27.967Z,58.10
2019-04-22T10:42:59.117Z,56.50
2019-04-22T10:45:30.320Z,56.30
2019-04-22T10:48:01.675Z,56.20
2019-04-22T10:50:56.764Z,56.20
2019-04-22T10:53:27.144Z,57.30
2019-04-22T10:55:56.976Z,58.30
2019-04-22T10:58:28.621Z,58.60
2019-04-22T11:01:00.181Z,57.80
2019-04-22T11:03:31.119Z,57.60
2019-04-22T11:06:01.356Z,58.10
2019-04-22T11:08:40.270Z,56.40
2019-04-22T11:11:16.084Z,58.00
2019-04-22T11:13:35.859Z,57.00
2019-04-22T11:16:07.612Z,57.30
2019-04-22T11:18:37.856Z,57.10
2019-04-22T11:21:09.518Z,56.70
2019-04-22T11:23:40.577Z,55.80
2019-04-22T11:26:12.197Z,56.90
2019-04-22T11:28:43.306Z,56.30
2019-04-22T11:31:14.534Z,56.00
2019-04-22T11:33:45.603Z,56.10
2019-04-22T11:36:15.846Z,55.70
2019-04-22T11:38:52.327Z,55.90
2019-04-22T11:41:17.628Z,55.80
2019-04-22T11:43:49.321Z,56.60
2019-04-22T11:46:20.980Z,56.00
2019-04-22T11:48:51.928Z,55.80
2019-04-22T11:51:22.301Z,54.00
2019-04-22T11:53:52.610Z,54.70
2019-04-22T11:56:23.018Z,54.20
2019-04-22T11:58:53.030Z,54.20
2019-04-22T12:01:24.473Z,52.70
2019-04-22T12:03:55.709Z,53.40
2019-04-22T12:06:26.273Z,53.50
2019-04-22T12:08:57.534Z,54.10
2019-04-22T12:11:28.258Z,52.90
2019-04-22T12:14:00.016Z,54.20
2019-04-22T12:16:31.665Z,54.00
2019-04-22T12:19:02.957Z,53.50
2019-04-22T12:21:33.117Z,52.60
2019-04-22T12:24:03.548Z,52.20
2019-04-22T12:26:34.569Z,53.10
2019-04-22T12:29:07.088Z,53.80
2019-04-22T12:31:37.657Z,54.40
2019-04-22T12:34:11.215Z,55.40
2019-04-22T12:36:42.615Z,53.60
2019-04-22T12:39:13.745Z,52.70
2019-04-22T12:41:44.308Z,54.40
2019-04-22T12:44:15.043Z,54.30
2019-04-22T12:46:46.177Z,55.70
2019-04-22T12:49:16.574Z,55.70
2019-04-22T12:51:47.373Z,53.80
2019-04-22T12:54:19.230Z,53.00
2019-04-22T12:56:51.254Z,51.60
2019-04-22T12:59:21.450Z,51.70
2019-04-22T13:01:52.726Z,53.20
2019-04-22T13:04:25.236Z,53.60
2019-04-22T13:06:55.605Z,54.10
2019-04-22T13:09:27.478Z,54.70
2019-04-22T13:11:58.975Z,53.90
2019-04-22T13:14:30.627Z,53.30
2019-04-22T13:17:01.875Z,53.50
2019-04-22T13:19:32.150Z,53.40
2019-04-22T13:22:02.922Z,53.40
2019-04-22T13:24:34.057Z,53.20
2019-04-22T13:27:03.936Z,51.70
2019-04-22T13:29:34.949Z,51.20
2019-04-22T13:32:06.869Z,50.90
2019-04-22T13:34:45.555Z,51.70
2019-04-22T13:37:10.743Z,50.90
2019-04-22T13:39:40.969Z,51.10
2019-04-22T13:42:14.108Z,50.40
2019-04-22T13:44:44.049Z,50.70
2019-04-22T13:47:32.611Z,50.00
2019-04-22T13:50:32.576Z,50.10
2019-04-22T13:52:46.711Z,50.70
2019-04-22T13:55:15.852Z,50.60
2019-04-22T13:57:43.949Z,51.20
2019-04-22T13:59:56.609Z,50.30
2019-04-22T14:02:46.610Z,50.30
2019-04-22T14:05:19.050Z,50.20
2019-04-22T14:07:52.027Z,50.60
2019-04-22T14:10:22.709Z,50.80
2019-04-22T14:12:52.898Z,50.10
2019-04-22T14:15:24.292Z,49.20
2019-04-22T14:17:55.144Z,50.00
2019-04-22T14:20:29.105Z,49.70
2019-04-22T14:22:58.833Z,49.00
2019-04-22T14:25:30.467Z,49.00
2019-04-22T14:28:06.320Z,49.70
2019-04-22T14:30:32.742Z,49.40
2019-04-22T14:33:02.767Z,49.20
2019-04-22T14:35:33.698Z,49.30
2019-04-22T14:38:06.462Z,49.00
2019-04-22T14:40:38.534Z,49.10
2019-04-22T14:43:35.159Z,49.30
2019-04-22T14:46:07.073Z,48.70
2019-04-22T14:48:42.288Z,49.20
2019-04-22T14:51:00.882Z,49.30
2019-04-22T14:53:35.215Z,49.30
2019-04-22T14:55:48.562Z,50.10
2019-04-22T14:58:19.201Z,49.40
2019-04-22T15:00:51.466Z,49.80
2019-04-22T15:03:21.895Z,48.60
2019-04-22T15:05:52.283Z,48.20
2019-04-22T15:08:22.494Z,48.30
2019-04-22T15:10:53.830Z,48.60
2019-04-22T15:13:25.327Z,48.80
2019-04-22T15:16:20.136Z,48.20
2019-04-22T15:19:15.937Z,48.40
2019-04-22T15:21:46.969Z,48.00
2019-04-22T15:24:27.543Z,48.00
2019-04-22T15:26:58.733Z,48.10
2019-04-22T15:29:29.627Z,48.20
2019-04-22T15:32:00.087Z,48.80
2019-04-22T15:34:30.780Z,47.80
2019-04-22T15:37:02.157Z,48.00
2019-04-22T15:39:32.175Z,48.00
2019-04-22T15:42:11.683Z,47.80
2019-04-22T15:44:33.825Z,48.60
2019-04-22T15:47:05.027Z,48.60
2019-04-22T15:49:35.985Z,48.40
2019-04-22T15:52:08.074Z,48.60
2019-04-22T15:54:39.340Z,49.00
2019-04-22T15:57:10.771Z,49.20
2019-04-22T15:59:58.497Z,48.80
2019-04-22T16:02:13.998Z,49.00
2019-04-22T16:04:44.551Z,49.00
2019-04-22T16:07:14.833Z,48.20
2019-04-22T16:09:45.758Z,48.60
2019-04-22T16:12:22.473Z,48.70
2019-04-22T16:14:52.969Z,48.50
2019-04-22T16:17:19.768Z,48.60
2019-04-22T16:19:50.860Z,48.20
2019-04-22T16:22:23.161Z,48.40
2019-04-22T16:25:11.264Z,47.00
2019-04-22T16:27:42.779Z,47.20
2019-04-22T16:30:13.307Z,46.90
2019-04-22T16:32:45.427Z,46.90
2019-04-22T16:35:16.818Z,47.20
2019-04-22T16:37:48.490Z,47.00
2019-04-22T16:40:20.746Z,47.40
2019-04-22T16:42:58.143Z,47.00
2019-04-22T16:45:22.776Z,47.10
2019-04-22T16:47:53.729Z,47.40
2019-04-22T16:50:25.045Z,47.60
2019-04-22T16:52:54.978Z,47.30
2019-04-22T16:55:26.600Z,47.50
2019-04-22T16:57:56.871Z,47.80
2019-04-22T17:00:28.787Z,47.70
2019-04-22T17:03:20.743Z,48.00
2019-04-22T17:06:08.031Z,48.00
2019-04-22T17:08:39.031Z,48.60
2019-04-22T17:11:09.765Z,48.80
2019-04-22T17:13:42.472Z,48.50
2019-04-22T17:16:13.859Z,48.80
2019-04-22T17:18:43.788Z,49.00
2019-04-22T17:21:14.660Z,49.20
2019-04-22T17:23:45.736Z,49.60
2019-04-22T17:26:16.702Z,49.50
2019-04-22T17:28:46.842Z,49.70
2019-04-22T17:31:18.467Z,49.70
2019-04-22T17:33:48.855Z,49.80
2019-04-22T17:36:20.130Z,50.00
2019-04-22T17:38:59.977Z,50.40
2019-04-22T17:41:38.624Z,50.40
2019-04-22T17:44:19.812Z,50.60
2019-04-22T17:46:48.299Z,50.80
2019-04-22T17:49:41.131Z,50.80
2019-04-22T17:52:21.852Z,51.00
2019-04-22T17:54:51.828Z,51.10
2019-04-22T17:57:27.959Z,51.20
2019-04-22T17:59:55.150Z,51.40
2019-04-22T18:02:26.755Z,51.20
2019-04-22T18:04:51.758Z,50.90
2019-04-22T18:07:38.428Z,50.70
2019-04-22T18:12:53.437Z,50.50
2019-04-22T18:15:29.455Z,50.60
2019-04-22T18:17:59.281Z,50.60
2019-04-22T18:20:20.152Z,50.80
2019-04-22T18:22:50.106Z,51.20
2019-04-22T18:25:24.599Z,51.50
2019-04-22T18:28:15.079Z,51.70
2019-04-22T18:30:24.200Z,52.10
2019-04-22T18:33:10.993Z,52.60
2019-04-22T18:35:38.030Z,52.70
2019-04-22T18:38:27.137Z,53.10
2019-04-22T18:40:44.811Z,53.30
2019-04-22T18:43:26.106Z,53.40
2019-04-22T18:45:59.900Z,53.60
2019-04-22T18:48:32.102Z,54.00
2019-04-22T18:51:24.956Z,53.90
2019-04-22T18:54:26.862Z,54.30
2019-04-22T18:57:02.621Z,54.50
2019-04-22T18:59:22.779Z,54.70
2019-04-22T19:01:48.122Z,54.70
2019-04-22T19:04:27.504Z,55.50
2019-04-22T19:07:19.043Z,55.00
2019-04-22T19:10:01.603Z,55.10
2019-04-22T19:12:28.950Z,55.30
2019-04-22T19:15:04.172Z,55.40
2019-04-22T19:17:51.175Z,55.60
2019-04-22T19:20:08.201Z,55.80
2019-04-22T19:22:45.760Z,56.00
2019-04-22T19:25:08.651Z,56.30
2019-04-22T19:27:46.492Z,56.50
2019-04-22T19:30:23.972Z,56.80
2019-04-22T19:32:52.906Z,56.90
2019-04-22T19:35:17.420Z,56.90
2019-04-22T19:37:52.261Z,57.20
2019-04-22T19:40:40.409Z,57.50
2019-04-22T19:43:02.411Z,57.70
2019-04-22T19:45:36.814Z,57.90
2019-04-22T19:48:16.657Z,58.00
2019-04-22T19:50:45.304Z,58.30
2019-04-22T19:53:19.565Z,58.60
2019-04-22T19:55:46.910Z,58.90
2019-04-22T19:58:18.265Z,59.30
2019-04-22T20:01:08.874Z,59.70
2019-04-22T20:06:41.368Z,60.60
2019-04-22T20:09:15.083Z,61.80
2019-04-22T20:11:43.781Z,61.50
2019-04-22T20:14:16.951Z,61.70
2019-04-22T20:16:46.548Z,62.20
2019-04-22T20:19:26.791Z,62.20
2019-04-22T20:21:51.838Z,62.50
2019-04-22T20:24:12.845Z,62.70
2019-04-22T20:27:11.710Z,63.00
2019-04-22T20:29:55.112Z,63.30
2019-04-22T20:32:15.699Z,63.40
2019-04-22T20:34:51.478Z,63.80
2019-04-22T20:37:28.290Z,63.80
2019-04-22T20:39:52.937Z,63.90
2019-04-22T20:42:35.583Z,63.90
2019-04-22T20:45:03.937Z,64.10
2019-04-22T20:47:29.162Z,64.50
2019-04-22T20:50:05.405Z,64.30
2019-04-22T20:52:48.722Z,64.80
2019-04-22T20:55:13.058Z,64.80
2019-04-22T20:57:57.855Z,65.20
2019-04-22T21:00:13.844Z,65.30
2019-04-22T21:02:48.960Z,65.50
2019-04-22T21:05:24.940Z,65.80
2019-04-22T21:08:06.360Z,65.70
2019-04-22T21:10:31.201Z,66.10
2019-04-22T21:13:05.606Z,66.30
2019-04-22T21:15:44.101Z,66.40
2019-04-22T21:18:09.666Z,66.70
2019-04-22T21:20:54.751Z,67.00
2019-04-22T21:23:17.480Z,67.40
2019-04-22T21:25:39.647Z,67.80
2019-04-22T21:28:21.430Z,68.30
2019-04-22T21:30:53.501Z,68.40
2019-04-22T21:33:19.544Z,68.80
2019-04-22T21:36:11.400Z,68.90
2019-04-22T21:38:35.944Z,69.00
2019-04-22T21:41:08.429Z,69.30
2019-04-22T21:43:35.832Z,69.60
2019-04-22T21:46:11.940Z,70.10
2019-04-22T21:48:44.895Z,70.10
2019-04-22T21:51:19.303Z,70.50
2019-04-22T21:53:52.204Z,71.00
2019-04-22T21:58:56.114Z,72.10
2019-04-22T22:01:42.602Z,72.80
2019-04-22T22:04:12.803Z,73.30
2019-04-22T22:06:39.712Z,73.90
2019-04-22T22:09:22.506Z,74.50
2019-04-22T22:11:49.337Z,74.70
2019-04-22T22:14:16.994Z,75.70
2019-04-22T22:16:43.474Z,76.10
2019-04-22T22:19:23.999Z,76.70
2019-04-22T22:22:29.839Z,77.30
2019-04-22T22:24:35.885Z,77.70
2019-04-22T22:27:01.817Z,78.10
2019-04-22T22:29:48.040Z,78.60
2019-04-22T22:32:11.777Z,78.90
2019-04-22T22:34:43.639Z,79.50
2019-04-22T22:37:03.641Z,80.00
2019-04-22T22:39:34.070Z,80.40
2019-04-22T22:41:54.136Z,80.90
2019-04-22T22:44:32.324Z,81.30
2019-04-22T22:47:16.730Z,81.50
2019-04-22T22:49:54.910Z,82.00
2019-04-22T22:52:45.037Z,82.60
2019-04-22T22:54:56.011Z,83.10
2019-04-22T22:57:44.361Z,83.40
2019-04-22T22:59:55.170Z,84.10
2019-04-22T23:02:36.287Z,84.30
2019-04-22T23:05:09.729Z,84.90
2019-04-22T23:07:42.751Z,85.40
2019-04-22T23:10:14.513Z,85.80
2019-04-22T23:13:01.586Z,86.30
2019-04-22T23:15:12.025Z,87.00
2019-04-22T23:17:29.442Z,87.80
2019-04-22T23:19:59.395Z,88.20
2019-04-22T23:22:41.619Z,88.30
2019-04-22T23:25:22.311Z,88.90
2019-04-22T23:27:56.936Z,89.70
2019-04-22T23:30:40.065Z,90.10
2019-04-22T23:33:20.372Z,90.40
2019-04-22T23:35:57.427Z,90.60
2019-04-22T23:38:42.485Z,90.90
2019-04-22T23:41:42.723Z,91.20
2019-04-22T23:44:07.414Z,91.60
2019-04-22T23:46:31.620Z,91.80
2019-04-22T23:49:04.555Z,92.20
2019-04-22T23:51:41.935Z,92.50
2019-04-22T23:54:18.871Z,92.80
2019-04-22T23:56:34.862Z,93.10
2019-04-22T23:59:40.308Z,93.50
